Time;durP1;ratioP1;P1;durP2;ratioP2;P2;SDS_P1;SDS_P2;PMS_P1;PMS_P2;Temp;Humidity;BMP_temperature;BMP_pressure;BME280_temperature;BME280_humidity;BME280_pressure;Samples;Min_cycle;Max_cycle;Signal;HPM_P1;HPM_P2
2022/01/12 00:01:24;;;;;;;6.85;5.45;;;;;;;2.27;48.18;102701.87;1680689;83;21076;-51
2022/01/12 00:03:51;;;;;;;9.08;5.65;;;;;;;2.24;48.46;102704.33;1697131;83;21521;-52
2022/01/12 00:06:17;;;;;;;6.35;4.87;;;;;;;2.15;48.29;102703.92;1697174;83;21526;-51
2022/01/12 00:08:44;;;;;;;6.55;5.30;;;;;;;2.09;48.67;102708.39;1682624;83;21570;-51
2022/01/12 00:11:10;;;;;;;6.85;5.42;;;;;;;2.06;49.00;102711.24;1697583;83;21487;-51
2022/01/12 00:13:37;;;;;;;7.80;5.40;;;;;;;2.02;49.32;102717.05;1679310;83;21560;-52
2022/01/12 00:16:04;;;;;;;7.78;5.95;;;;;;;1.97;49.14;102704.01;1679755;83;21089;-51
2022/01/12 00:18:31;;;;;;;7.33;5.20;;;;;;;1.94;49.45;102720.98;1676386;83;21497;-52
2022/01/12 00:20:58;;;;;;;7.58;5.30;;;;;;;1.93;49.69;102724.34;1680334;84;21546;-51
2022/01/12 00:23:25;;;;;;;12.15;6.25;;;;;;;1.87;49.33;102726.64;1693644;83;21561;-51
2022/01/12 00:34:00;;;;;;;7.80;5.12;;;;;;;1.76;49.62;102722.30;1680838;83;21592;-51
2022/01/12 00:36:27;;;;;;;9.30;5.05;;;;;;;1.72;49.44;102726.83;1682449;83;21070;-51
2022/01/12 00:38:54;;;;;;;9.75;6.20;;;;;;;1.68;49.71;102720.19;1672722;83;21058;-51
2022/01/12 00:41:20;;;;;;;7.92;6.17;;;;;;;1.67;50.21;102736.41;1691082;83;21050;-51
2022/01/12 00:43:50;;;;;;;6.80;5.30;;;;;;;1.64;49.94;102726.48;1696885;83;21156;-51
2022/01/12 00:46:15;;;;;;;6.78;5.80;;;;;;;1.61;49.91;102725.05;1679086;83;21584;-51
2022/01/12 00:48:43;;;;;;;6.28;5.05;;;;;;;1.58;49.86;102722.36;1690598;83;21533;-52
2022/01/12 00:51:11;;;;;;;5.67;4.85;;;;;;;1.52;50.08;102723.36;1687103;83;21054;-51
2022/01/12 00:53:39;;;;;;;6.25;5.30;;;;;;;1.46;50.12;102735.88;1693959;82;21022;-51
2022/01/12 00:56:06;;;;;;;8.30;5.42;;;;;;;1.38;50.30;102738.92;1698938;83;21109;-51
2022/01/12 00:58:37;;;;;;;8.60;5.42;;;;;;;1.33;50.95;102736.14;1692814;83;21542;-51
2022/01/12 01:01:03;;;;;;;7.37;5.53;;;;;;;1.28;50.62;102735.03;1689059;83;21073;-51
2022/01/12 01:03:31;;;;;;;8.23;5.80;;;;;;;1.25;50.79;102737.47;1692783;83;21097;-51
2022/01/12 01:05:59;;;;;;;8.45;5.30;;;;;;;1.21;50.69;102738.52;1682213;83;21041;-52
2022/01/12 01:08:26;;;;;;;6.78;5.35;;;;;;;1.17;51.21;102736.23;1680087;83;21071;-51
2022/01/12 01:10:56;;;;;;;6.30;4.85;;;;;;;1.13;51.08;102738.17;1696249;83;21071;-51
2022/01/12 01:13:32;;;;;;;6.25;5.25;;;;;;;1.09;51.06;102737.55;1684106;83;21088;-55
2022/01/12 01:26:44;;;;;;;8.10;5.85;;;;;;;0.97;51.77;102739.49;1682362;83;21128;-51
2022/01/12 01:29:11;;;;;;;6.83;5.25;;;;;;;0.98;51.83;102750.23;1704538;83;21069;-51
2022/01/12 01:31:39;;;;;;;6.00;5.20;;;;;;;0.98;51.95;102750.23;1670119;84;21037;-50
2022/01/12 01:34:09;;;;;;;8.30;6.15;;;;;;;0.97;51.70;102736.93;1698113;83;21098;-50
2022/01/12 01:36:52;;;;;;;7.37;5.90;;;;;;;0.92;51.64;102738.41;1665007;84;21614;-51
2022/01/12 01:39:22;;;;;;;9.85;5.70;;;;;;;0.91;52.11;102745.61;1658814;84;21026;-50
2022/01/12 01:41:56;;;;;;;8.93;6.35;;;;;;;0.94;52.02;102747.05;1673264;84;21006;-51
2022/01/12 01:55:10;;;;;;;7.05;5.70;;;;;;;0.90;51.98;102738.73;1697906;83;21089;-51
2022/01/12 01:57:36;;;;;;;7.25;5.45;;;;;;;0.88;52.05;102749.32;1714527;83;21562;-52
2022/01/12 02:00:07;;;;;;;8.95;5.95;;;;;;;0.87;52.45;102742.42;1672713;83;20997;-52
2022/01/12 02:02:36;;;;;;;7.70;5.55;;;;;;;0.88;52.35;102754.44;1689439;83;21081;-53
2022/01/12 02:05:05;;;;;;;12.63;6.58;;;;;;;0.88;52.21;102746.75;1695122;83;21136;-52
2022/01/12 02:07:33;;;;;;;8.18;5.85;;;;;;;0.87;51.79;102744.98;1694854;83;21029;-54
2022/01/12 02:10:00;;;;;;;8.03;6.22;;;;;;;0.87;51.82;102751.39;1696976;83;21029;-53
2022/01/12 02:12:29;;;;;;;8.65;6.65;;;;;;;0.88;52.14;102751.87;1658812;85;21066;-52
2022/01/12 02:14:58;;;;;;;6.45;4.85;;;;;;;0.87;51.92;102751.39;1633047;87;21595;-53
2022/01/12 02:17:31;;;;;;;6.42;5.20;;;;;;;0.84;52.10;102753.39;1598548;88;21050;-52
2022/01/12 02:20:31;;;;;;;9.78;5.92;;;;;;;0.83;52.04;102753.33;1649556;85;21055;-52
2022/01/12 02:36:31;;;;;;;7.10;5.92;;;;;;;0.86;51.88;102764.13;1624110;87;21055;-52
2022/01/12 02:41:41;;;;;;;7.60;5.83;;;;;;;0.88;51.73;102762.13;1656489;85;21079;-52
2022/01/12 02:54:49;;;;;;;8.35;5.80;;;;;;;0.82;51.32;102761.83;1623825;86;21047;-54
2022/01/12 02:57:15;;;;;;;7.75;5.92;;;;;;;0.77;51.29;102747.50;1623372;88;21003;-52
2022/01/12 03:00:02;;;;;;;7.35;5.40;;;;;;;0.74;50.97;102755.02;1642200;86;21519;-52
2022/01/12 03:02:30;;;;;;;7.45;5.37;;;;;;;0.72;50.91;102750.66;1631377;86;21055;-52
2022/01/12 03:05:08;;;;;;;6.22;5.35;;;;;;;0.68;50.96;102765.40;1595088;89;21572;-52
2022/01/12 03:07:20;;;;;;;9.75;5.92;;;;;;;0.66;51.05;102773.41;1589220;89;21128;-52
2022/01/12 03:09:46;;;;;;;6.42;4.90;;;;;;;0.63;51.11;102756.59;1597656;89;21071;-52
2022/01/12 03:12:15;;;;;;;7.12;5.30;;;;;;;0.60;51.54;102760.27;1592108;89;21074;-52
2022/01/12 03:14:43;;;;;;;6.33;5.08;;;;;;;0.55;51.39;102763.91;1591157;89;21428;-52
2022/01/12 03:17:14;;;;;;;8.70;5.50;;;;;;;0.55;51.61;102771.98;1595753;89;21548;-52
2022/01/12 03:19:40;;;;;;;8.03;5.83;;;;;;;0.54;51.77;102779.16;1554988;92;21565;-51
2022/01/12 03:22:07;;;;;;;8.00;5.58;;;;;;;0.55;51.94;102768.13;1587004;89;21094;-52
2022/01/12 03:24:34;;;;;;;7.70;5.92;;;;;;;0.54;52.05;102771.48;1593659;89;21176;-52
2022/01/12 03:27:00;;;;;;;7.20;5.80;;;;;;;0.53;52.08;102764.62;1591088;89;21029;-51
2022/01/12 03:29:27;;;;;;;7.85;5.28;;;;;;;0.52;51.90;102770.52;1594397;89;21631;-51
2022/01/12 03:31:56;;;;;;;6.00;5.10;;;;;;;0.53;52.13;102774.47;1595632;89;21064;-52
2022/01/12 03:34:29;;;;;;;7.50;5.35;;;;;;;0.53;52.02;102772.30;1590874;89;21069;-52
2022/01/12 04:10:19;;;;;;;8.78;6.08;;;;;;;0.38;51.87;102766.39;1596225;89;21525;-52
2022/01/12 04:12:45;;;;;;;7.83;5.78;;;;;;;0.40;51.85;102775.03;1580617;89;21100;-52
2022/01/12 04:15:12;;;;;;;9.58;6.33;;;;;;;0.43;51.87;102780.32;1594168;89;21554;-52
2022/01/12 04:17:39;;;;;;;8.38;5.87;;;;;;;0.42;51.69;102769.58;1589445;89;21122;-52
2022/01/12 04:20:07;;;;;;;8.08;5.67;;;;;;;0.42;51.76;102782.39;1585755;89;21047;-52
2022/01/12 04:25:23;;;;;;;10.50;5.50;;;;;;;0.45;51.38;102781.28;1591689;89;21133;-52
2022/01/12 04:27:49;;;;;;;7.90;5.50;;;;;;;0.46;51.31;102790.70;1593586;89;21506;-52
2022/01/12 04:30:15;;;;;;;7.05;5.15;;;;;;;0.45;51.23;102793.70;1583947;89;21529;-52
2022/01/12 04:32:43;;;;;;;7.62;5.47;;;;;;;0.44;50.17;102774.38;1596086;87;21542;-52
2022/01/12 04:35:10;;;;;;;8.13;5.50;;;;;;;0.42;50.23;102783.67;1584447;89;21606;-52
2022/01/12 04:37:37;;;;;;;8.98;5.75;;;;;;;0.40;50.25;102785.27;1594923;89;21551;-52
2022/01/12 04:40:06;;;;;;;7.45;5.55;;;;;;;0.37;50.57;102781.29;1592459;89;21587;-52
2022/01/12 04:42:34;;;;;;;7.72;5.83;;;;;;;0.35;50.18;102787.59;1590760;87;21076;-52
2022/01/12 04:45:16;;;;;;;7.80;5.70;;;;;;;0.32;50.29;102784.89;1643511;86;21054;-52
2022/01/12 04:50:28;;;;;;;8.48;5.00;;;;;;;0.29;50.17;102787.27;1530062;92;21082;-52
2022/01/12 04:52:54;;;;;;;11.00;5.97;;;;;;;0.27;50.05;102798.27;1524046;93;21090;-52
2022/01/12 04:55:21;;;;;;;6.67;4.92;;;;;;;0.25;50.24;102795.59;1530188;92;21137;-52
2022/01/12 04:57:49;;;;;;;6.95;5.30;;;;;;;0.24;50.02;102795.53;1530582;92;21099;-52
2022/01/12 05:00:16;;;;;;;7.22;5.65;;;;;;;0.23;50.34;102801.47;1528088;93;21039;-52
2022/01/12 05:13:43;;;;;;;6.75;4.92;;;;;;;-0.01;49.80;102804.48;1582448;89;21109;-52
2022/01/12 05:16:10;;;;;;;6.75;5.05;;;;;;;-0.02;49.77;102804.38;1570598;88;21091;-52
2022/01/12 05:18:40;;;;;;;8.00;5.05;;;;;;;-0.04;49.73;102804.30;1562013;89;21057;-52
2022/01/12 05:21:07;;;;;;;6.10;5.03;;;;;;;-0.06;49.69;102803.34;1626469;83;21501;-52
2022/01/12 05:23:33;;;;;;;9.10;5.80;;;;;;;-0.07;49.70;102818.62;1701404;83;21537;-52
2022/01/12 05:26:00;;;;;;;8.33;5.03;;;;;;;-0.10;49.80;102809.09;1676934;83;21033;-52
2022/01/12 05:28:27;;;;;;;8.30;5.35;;;;;;;-0.13;50.01;102807.67;1680883;83;21058;-52
2022/01/12 05:30:54;;;;;;;7.58;5.40;;;;;;;-0.15;49.94;102818.22;1678506;83;21054;-52
2022/01/12 05:33:24;;;;;;;7.58;5.03;;;;;;;-0.18;49.93;102820.98;1686504;83;21113;-52
2022/01/12 05:35:54;;;;;;;7.15;5.55;;;;;;;-0.21;49.81;102823.01;1688413;83;21534;-52
2022/01/12 05:38:21;;;;;;;6.90;4.72;;;;;;;-0.22;50.34;102831.46;1682438;83;21058;-52
2022/01/12 05:40:52;;;;;;;6.92;5.30;;;;;;;-0.22;50.51;102828.91;1701260;83;21464;-52
2022/01/12 05:43:25;;;;;;;6.70;5.47;;;;;;;-0.24;50.12;102838.17;1691688;83;21047;-52
2022/01/12 05:45:51;;;;;;;9.15;5.67;;;;;;;-0.24;50.27;102836.00;1675836;83;21059;-52
2022/01/12 05:50:47;;;;;;;7.17;4.60;;;;;;;-0.26;50.49;102852.95;1680767;83;21075;-52
2022/01/12 05:53:15;;;;;;;5.58;4.80;;;;;;;-0.30;50.54;102849.35;1662072;85;21526;-52
2022/01/12 05:55:44;;;;;;;6.85;5.03;;;;;;;-0.31;50.31;102852.69;1707088;83;21062;-52
2022/01/12 05:58:11;;;;;;;8.30;4.95;;;;;;;-0.33;50.29;102855.56;1687774;83;21141;-52
2022/01/12 06:00:38;;;;;;;7.10;5.03;;;;;;;-0.34;49.77;102852.92;1689421;82;21031;-52
2022/01/12 06:03:04;;;;;;;5.87;4.33;;;;;;;-0.40;49.69;102859.88;1687546;83;21045;-52
2022/01/12 06:05:31;;;;;;;10.43;5.10;;;;;;;-0.44;49.71;102856.66;1682945;83;21065;-51
2022/01/12 06:07:58;;;;;;;6.00;4.60;;;;;;;-0.49;49.09;102860.63;1695740;83;21070;-52
2022/01/12 06:10:25;;;;;;;6.25;5.03;;;;;;;-0.53;49.05;102860.36;1677546;83;21049;-52
2022/01/12 06:12:52;;;;;;;5.00;4.12;;;;;;;-0.57;48.43;102869.55;1688752;83;21455;-52
2022/01/12 06:15:21;;;;;;;5.80;4.40;;;;;;;-0.58;48.76;102874.58;1682863;83;21550;-52
2022/01/12 06:17:48;;;;;;;7.67;5.20;;;;;;;-0.60;48.31;102880.89;1701503;82;21688;-52
2022/01/12 06:20:15;;;;;;;6.80;4.60;;;;;;;-0.61;48.36;102882.06;1703666;83;21026;-52
2022/01/12 06:22:52;;;;;;;5.90;4.58;;;;;;;-0.59;48.52;102887.75;1663236;85;21147;-52
2022/01/12 06:25:19;;;;;;;6.40;4.45;;;;;;;-0.57;47.87;102891.27;1664095;85;21035;-52
2022/01/12 06:27:52;;;;;;;6.65;4.45;;;;;;;-0.59;47.84;102891.59;1658319;85;21200;-53
2022/01/12 06:32:58;;;;;;;7.20;4.60;;;;;;;-0.73;47.84;102889.92;1654992;85;21111;-52
2022/01/12 06:35:25;;;;;;;6.77;5.03;;;;;;;-0.75;47.23;102891.89;1662038;85;21069;-52
2022/01/12 06:37:53;;;;;;;6.62;4.78;;;;;;;-0.79;47.46;102894.68;1640254;85;21040;-54
2022/01/12 06:40:20;;;;;;;7.03;4.87;;;;;;;-0.81;47.39;102883.48;1632164;85;21541;-51
2022/01/12 06:42:47;;;;;;;6.87;5.35;;;;;;;-0.86;47.57;102896.38;1654038;85;21031;-52
2022/01/12 06:45:14;;;;;;;7.87;5.95;;;;;;;-0.89;47.87;102892.39;1655748;85;21091;-52
2022/01/12 06:47:42;;;;;;;6.37;5.05;;;;;;;-0.95;47.98;102888.20;1618117;85;21609;-52
2022/01/12 06:50:09;;;;;;;8.35;4.95;;;;;;;-0.98;48.12;102891.84;1660264;85;21537;-52
2022/01/12 06:52:36;;;;;;;6.40;5.03;;;;;;;-1.01;48.71;102902.75;1663670;85;21017;-52
2022/01/12 06:55:04;;;;;;;7.28;5.08;;;;;;;-1.01;48.92;102901.90;1651603;85;21055;-52
2022/01/12 06:57:31;;;;;;;6.37;4.90;;;;;;;-1.02;48.71;102909.06;1639580;86;21002;-52
2022/01/12 06:59:58;;;;;;;8.70;6.28;;;;;;;-1.04;48.94;102908.09;1667630;83;21005;-52
2022/01/12 07:02:25;;;;;;;8.45;5.70;;;;;;;-1.03;48.53;102903.48;1682146;83;20998;-52
2022/01/12 07:04:52;;;;;;;6.65;4.80;;;;;;;-1.06;48.87;102904.56;1681334;83;21526;-52
2022/01/12 07:07:20;;;;;;;5.55;4.62;;;;;;;-1.10;48.62;102907.34;1677016;83;21077;-52
2022/01/12 07:09:48;;;;;;;7.53;5.37;;;;;;;-1.11;48.59;102904.67;1691429;83;21576;-51
2022/01/12 07:12:17;;;;;;;7.45;5.05;;;;;;;-1.13;48.61;102910.09;1683615;83;21035;-52
2022/01/12 07:14:44;;;;;;;7.25;5.12;;;;;;;-1.13;48.82;102919.03;1693736;83;21066;-53
2022/01/12 07:17:12;;;;;;;6.60;4.80;;;;;;;-1.13;48.66;102913.92;1674193;83;21029;-52
2022/01/12 07:19:39;;;;;;;8.20;5.17;;;;;;;-1.19;48.13;102911.00;1686914;83;21022;-52
2022/01/12 07:22:07;;;;;;;7.25;5.33;;;;;;;-1.25;48.56;102925.96;1705498;83;21058;-52
2022/01/12 07:24:33;;;;;;;7.87;5.17;;;;;;;-1.30;48.66;102917.16;1699828;83;21044;-52
2022/01/12 07:27:00;;;;;;;9.73;5.12;;;;;;;-1.33;48.78;102925.90;1695440;83;21105;-52
2022/01/12 07:29:26;;;;;;;6.78;5.05;;;;;;;-1.31;48.55;102928.15;1695165;83;21061;-52
2022/01/12 07:31:53;;;;;;;11.65;5.08;;;;;;;-1.34;47.77;102925.42;1682807;83;21055;-52
2022/01/12 07:34:20;;;;;;;7.22;5.00;;;;;;;-1.39;48.19;102926.80;1687927;83;21073;-53
2022/01/12 07:36:46;;;;;;;8.43;5.35;;;;;;;-1.41;48.02;102929.66;1683047;83;21041;-52
2022/01/12 07:39:13;;;;;;;6.05;4.85;;;;;;;-1.43;48.08;102932.52;1683312;84;21053;-50
2022/01/12 07:41:39;;;;;;;8.13;4.97;;;;;;;-1.42;48.07;102930.47;1686527;83;21054;-51
2022/01/12 07:44:06;;;;;;;8.48;4.90;;;;;;;-1.41;47.69;102922.89;1689934;83;21800;-51
2022/01/12 07:46:33;;;;;;;6.15;4.72;;;;;;;-1.44;47.52;102921.83;1680912;83;21141;-51
2022/01/12 07:48:59;;;;;;;7.03;4.60;;;;;;;-1.45;47.93;102922.60;1705440;83;20998;-51
2022/01/12 07:51:26;;;;;;;7.30;4.42;;;;;;;-1.43;47.91;102926.13;1705732;83;21030;-51
2022/01/12 07:53:52;;;;;;;7.17;5.35;;;;;;;-1.40;47.51;102928.89;1698207;83;21561;-53
2022/01/12 07:56:18;;;;;;;6.42;4.95;;;;;;;-1.45;47.43;102931.55;1698385;83;21534;-51
2022/01/12 07:58:45;;;;;;;7.87;4.95;;;;;;;-1.48;47.82;102935.20;1684235;83;21522;-51
2022/01/12 08:01:12;;;;;;;10.65;5.25;;;;;;;-1.52;47.50;102931.94;1687592;83;21053;-51
2022/01/12 08:03:39;;;;;;;6.60;5.15;;;;;;;-1.53;47.60;102936.58;1687105;83;21069;-51
2022/01/12 08:06:05;;;;;;;7.10;5.10;;;;;;;-1.55;47.95;102940.32;1682583;83;21001;-51
2022/01/12 08:08:33;;;;;;;7.37;5.08;;;;;;;-1.51;48.05;102946.48;1682551;83;21047;-51
2022/01/12 08:11:00;;;;;;;6.33;5.05;;;;;;;-1.48;47.85;102944.99;1692959;83;21069;-50
2022/01/12 08:13:26;;;;;;;5.65;4.42;;;;;;;-1.48;47.64;102941.58;1680315;83;21459;-51
2022/01/12 08:15:54;;;;;;;7.65;5.40;;;;;;;-1.47;47.65;102944.61;1692179;82;21033;-51
2022/01/12 08:18:21;;;;;;;7.53;5.62;;;;;;;-1.45;47.49;102941.75;1683901;83;21014;-50
2022/01/12 08:20:47;;;;;;;8.38;5.30;;;;;;;-1.44;47.25;102943.53;1698311;83;21009;-51
2022/01/12 08:23:13;;;;;;;6.50;4.85;;;;;;;-1.47;47.43;102945.89;1702306;83;21050;-51
2022/01/12 08:25:40;;;;;;;8.25;5.65;;;;;;;-1.48;47.19;102951.38;1680155;84;21044;-51
2022/01/12 08:28:06;;;;;;;6.70;5.15;;;;;;;-1.51;47.21;102954.14;1681481;83;21046;-52
2022/01/12 08:30:34;;;;;;;6.17;4.62;;;;;;;-1.53;47.79;102957.00;1683840;83;21014;-51
2022/01/12 08:33:02;;;;;;;7.40;5.37;;;;;;;-1.51;47.86;102951.59;1689654;83;21018;-51
2022/01/12 08:35:30;;;;;;;6.72;5.22;;;;;;;-1.54;47.82;102953.55;1696752;83;21019;-51
2022/01/12 08:37:57;;;;;;;6.15;4.50;;;;;;;-1.52;48.18;102943.43;1685196;83;21054;-51
2022/01/12 08:40:24;;;;;;;6.97;4.92;;;;;;;-1.46;48.32;102948.94;1703160;83;21053;-50
2022/01/12 08:42:50;;;;;;;7.05;4.45;;;;;;;-1.40;47.97;102945.48;1685740;83;21122;-50
2022/01/12 08:45:17;;;;;;;5.58;4.35;;;;;;;-1.36;48.04;102947.44;1693527;83;20981;-51
2022/01/12 08:47:44;;;;;;;6.00;4.28;;;;;;;-1.32;47.81;102936.62;1678586;83;21070;-50
2022/01/12 08:50:11;;;;;;;6.55;5.10;;;;;;;-1.32;47.82;102943.86;1697421;83;21057;-50
2022/01/12 08:52:44;;;;;;;7.30;4.87;;;;;;;-1.29;47.52;102940.62;1694797;83;21098;-51
2022/01/12 08:55:13;;;;;;;8.38;5.10;;;;;;;-1.26;47.42;102933.16;1683233;83;21066;-51
2022/01/12 08:57:40;;;;;;;7.78;4.50;;;;;;;-1.25;47.16;102931.96;1676338;83;21029;-51
2022/01/12 09:00:07;;;;;;;6.03;3.92;;;;;;;-1.22;47.21;102933.83;1681128;83;21018;-52
2022/01/12 09:02:34;;;;;;;5.05;3.90;;;;;;;-1.17;47.51;102937.12;1683180;83;21015;-51
2022/01/12 09:05:01;;;;;;;6.40;4.70;;;;;;;-1.11;47.16;102929.83;1692806;83;21090;-51
2022/01/12 09:07:27;;;;;;;7.78;4.90;;;;;;;-1.05;47.11;102931.89;1679424;83;21062;-51
2022/01/12 09:09:54;;;;;;;5.28;3.85;;;;;;;-1.03;47.38;102922.64;1687749;83;21505;-51
2022/01/12 09:12:20;;;;;;;5.90;3.67;;;;;;;-1.00;47.24;102914.75;1674714;84;20985;-51
2022/01/12 09:14:48;;;;;;;7.72;3.90;;;;;;;-0.97;46.70;102920.45;1686841;83;21029;-51
2022/01/12 09:17:18;;;;;;;4.92;3.20;;;;;;;-0.97;46.98;102917.89;1693589;83;21060;-51
2022/01/12 09:19:46;;;;;;;4.90;3.77;;;;;;;-0.96;46.76;102911.97;1681446;83;21480;-52
2022/01/12 09:22:13;;;;;;;4.45;3.47;;;;;;;-0.97;46.14;102914.06;1699258;83;21109;-51
2022/01/12 09:24:42;;;;;;;6.03;4.00;;;;;;;-0.97;46.50;102908.95;1705320;83;21073;-51
2022/01/12 09:27:08;;;;;;;4.50;3.30;;;;;;;-0.93;46.92;102905.78;1681262;83;21806;-51
2022/01/12 09:29:36;;;;;;;6.97;4.00;;;;;;;-0.88;46.92;102912.91;1702450;82;21030;-51
2022/01/12 09:32:03;;;;;;;5.62;4.08;;;;;;;-0.79;46.96;102907.46;1687730;83;20971;-51
2022/01/12 09:34:31;;;;;;;5.33;3.30;;;;;;;-0.71;46.80;102897.28;1684098;83;21085;-52
2022/01/12 09:36:57;;;;;;;7.45;4.15;;;;;;;-0.62;47.22;102896.55;1691440;83;21011;-53
2022/01/12 09:39:24;;;;;;;5.03;3.65;;;;;;;-0.52;47.27;102901.38;1692242;83;21133;-51
2022/01/12 09:41:51;;;;;;;3.50;3.20;;;;;;;-0.42;46.97;102897.27;1699845;83;21030;-51
2022/01/12 09:44:18;;;;;;;5.72;3.67;;;;;;;-0.37;46.97;102897.11;1709295;83;21058;-51
2022/01/12 09:46:44;;;;;;;5.78;3.62;;;;;;;-0.32;46.95;102898.27;1686418;83;21620;-51
2022/01/12 09:49:11;;;;;;;4.70;3.42;;;;;;;-0.26;46.81;102893.48;1681909;83;21056;-51
2022/01/12 09:51:38;;;;;;;4.28;3.15;;;;;;;-0.22;46.39;102882.62;1680144;82;21038;-51
2022/01/12 09:54:05;;;;;;;5.22;2.52;;;;;;;-0.21;46.50;102894.64;1689383;83;21010;-52
2022/01/12 09:56:31;;;;;;;5.25;3.40;;;;;;;-0.17;46.46;102884.17;1672234;83;21019;-51
2022/01/12 09:59:00;;;;;;;4.53;3.12;;;;;;;-0.08;46.55;102886.83;1690785;83;21082;-51
2022/01/12 10:01:45;;;;;;;4.25;2.77;;;;;;;-0.02;46.32;102888.44;1682011;83;21062;-51
2022/01/12 10:04:16;;;;;;;4.33;3.10;;;;;;;0.03;46.56;102889.09;1677639;83;21140;-51
2022/01/12 10:06:55;;;;;;;5.20;3.20;;;;;;;0.08;46.61;102882.55;1684033;83;21002;-51
2022/01/12 10:09:31;;;;;;;4.37;2.83;;;;;;;0.13;47.06;102884.55;1699812;83;21011;-51
2022/01/12 10:12:01;;;;;;;4.10;2.70;;;;;;;0.18;46.80;102884.81;1681218;83;21033;-51
2022/01/12 10:14:44;;;;;;;5.42;3.50;;;;;;;0.24;46.74;102877.45;1688457;83;21054;-51
2022/01/12 10:17:12;;;;;;;5.00;3.12;;;;;;;0.29;46.48;102875.61;1662938;85;21070;-51
2022/01/12 10:19:39;;;;;;;7.00;3.62;;;;;;;0.28;45.96;102883.22;1674786;85;21027;-51
2022/01/12 10:22:08;;;;;;;5.50;3.22;;;;;;;0.29;46.10;102870.48;1645272;85;21535;-51
2022/01/12 10:24:42;;;;;;;4.20;2.75;;;;;;;0.35;46.18;102875.93;1657672;85;21046;-51
2022/01/12 10:27:18;;;;;;;6.00;3.33;;;;;;;0.41;45.94;102863.87;1658930;84;21090;-51
2022/01/12 10:29:46;;;;;;;6.03;3.22;;;;;;;0.43;45.53;102862.27;1671369;84;21097;-51
2022/01/12 10:32:17;;;;;;;4.42;2.85;;;;;;;0.43;45.54;102862.27;1644420;85;21066;-51
2022/01/12 10:34:48;;;;;;;5.42;3.05;;;;;;;0.45;45.60;102859.00;1653650;84;21041;-51
2022/01/12 10:37:22;;;;;;;3.98;2.62;;;;;;;0.50;45.92;102855.38;1666086;85;21016;-52
2022/01/12 10:39:50;;;;;;;4.53;3.00;;;;;;;0.59;45.83;102854.58;1660212;85;21098;-51
2022/01/12 10:42:22;;;;;;;5.30;2.50;;;;;;;0.60;45.30;102843.52;1662743;85;21062;-51
2022/01/12 10:44:52;;;;;;;3.35;2.55;;;;;;;0.59;45.51;102852.02;1658315;84;21109;-51
2022/01/12 10:47:29;;;;;;;3.12;2.65;;;;;;;0.65;45.59;102849.77;1661162;85;21077;-51
2022/01/12 10:50:06;;;;;;;7.45;3.10;;;;;;;0.68;45.42;102847.38;1653126;84;21099;-51
2022/01/12 10:52:40;;;;;;;4.62;2.90;;;;;;;0.70;45.10;102838.95;1649292;85;21065;-51
2022/01/12 10:55:09;;;;;;;4.12;2.60;;;;;;;0.72;45.23;102831.36;1657859;85;21085;-51
2022/01/12 10:57:40;;;;;;;4.70;2.85;;;;;;;0.72;45.13;102844.17;1657647;85;21085;-51
2022/01/12 11:00:19;;;;;;;2.33;2.12;;;;;;;0.73;44.17;102834.00;1570655;90;21071;-52
2022/01/12 11:02:49;;;;;;;5.40;2.50;;;;;;;0.74;44.59;102841.29;1539391;92;21204;-52
2022/01/12 11:05:18;;;;;;;4.42;2.47;;;;;;;0.77;44.07;102835.02;1519069;94;21101;-51
2022/01/12 11:07:48;;;;;;;3.55;2.30;;;;;;;0.77;44.22;102833.73;1457037;97;22040;-51
2022/01/12 11:10:15;;;;;;;4.50;2.42;;;;;;;0.73;44.04;102822.86;1454583;97;21104;-51
2022/01/12 11:12:42;;;;;;;6.12;2.95;;;;;;;0.71;43.92;102825.74;1446877;97;21138;-52
2022/01/12 11:15:13;;;;;;;4.15;2.90;;;;;;;0.74;44.51;102819.51;1441886;97;21140;-53
2022/01/12 11:17:40;;;;;;;;;;;;;;;0.78;44.81;102821.42;1402152;101;21629;-51
2022/01/12 11:20:17;;;;;;;6.12;3.00;;;;;;;0.85;44.88;102823.47;1402210;101;20488;-51
2022/01/12 11:22:56;;;;;;;6.15;2.65;;;;;;;0.85;44.63;102826.03;1394357;102;21167;-51
2022/01/12 11:25:32;;;;;;;2.85;2.10;;;;;;;0.84;44.86;102826.85;1422981;100;21628;-51
2022/01/12 11:28:16;;;;;;;4.37;2.40;;;;;;;0.80;43.06;102818.53;1410555;101;21167;-51
2022/01/12 11:30:50;;;;;;;5.08;3.20;;;;;;;0.76;43.62;102830.72;1413706;100;21128;-51
2022/01/12 11:33:33;;;;;;;3.72;2.67;;;;;;;0.74;44.05;102832.32;1405075;101;21124;-51
2022/01/12 11:36:04;;;;;;;4.53;2.72;;;;;;;0.81;44.88;102843.34;1372970;104;21102;-51
2022/01/12 11:38:34;;;;;;;4.40;3.10;;;;;;;0.86;44.59;102832.94;1360580;105;21159;-51
2022/01/12 11:41:26;;;;;;;5.28;3.00;;;;;;;0.90;44.77;102828.44;1326970;107;21153;-51
2022/01/12 11:44:03;;;;;;;4.08;2.95;;;;;;;0.95;44.26;102835.94;1327012;107;21272;-51
2022/01/12 11:46:55;;;;;;;4.53;2.30;;;;;;;0.98;44.00;102828.42;1340670;106;21221;-51
2022/01/12 11:52:26;;;;;;;4.35;2.27;;;;;;;1.14;43.33;102832.21;1332709;106;21657;-51
2022/01/12 11:55:06;;;;;;;3.33;2.47;;;;;;;1.23;42.87;102833.95;1337883;106;21673;-51
2022/01/12 11:57:34;;;;;;;2.15;1.72;;;;;;;1.31;42.52;102832.64;1369754;104;21140;-51
2022/01/12 12:00:12;;;;;;;5.17;3.08;;;;;;;1.36;42.44;102835.44;1380111;103;21140;-51
2022/01/12 12:02:47;;;;;;;4.87;2.67;;;;;;;1.36;42.37;102835.44;1338808;106;21244;-51
2022/01/12 12:05:17;;;;;;;5.20;2.55;;;;;;;1.41;42.15;102843.82;1336051;105;21258;-51
2022/01/12 12:07:52;;;;;;;3.70;2.58;;;;;;;1.38;42.11;102833.83;1362120;104;21123;-51
2022/01/12 12:10:25;;;;;;;5.00;2.60;;;;;;;1.35;42.05;102829.42;1358250;104;21691;-52
2022/01/12 12:12:55;;;;;;;4.97;3.25;;;;;;;1.34;42.68;102834.48;1347734;104;21113;-52
2022/01/12 12:15:24;;;;;;;6.33;3.00;;;;;;;1.36;42.57;102831.59;1384507;102;21147;-52
2022/01/12 12:17:52;;;;;;;4.37;3.02;;;;;;;1.36;42.31;102822.19;1394989;101;21862;-52
2022/01/12 12:20:21;;;;;;;5.53;3.52;;;;;;;1.37;42.91;102825.24;1422181;99;21552;-52
2022/01/12 12:22:49;;;;;;;5.62;3.80;;;;;;;1.39;42.28;102826.20;1420178;99;21151;-52
2022/01/12 12:25:18;;;;;;;4.92;3.55;;;;;;;1.38;42.81;102832.11;1432578;99;21156;-52
2022/01/12 12:27:48;;;;;;;3.77;2.67;;;;;;;1.34;42.79;102828.08;1431039;98;21083;-52
2022/01/12 12:30:16;;;;;;;5.83;2.70;;;;;;;1.34;42.58;102821.23;1414617;99;21122;-52
2022/01/12 12:32:49;;;;;;;4.67;2.47;;;;;;;1.36;42.87;102824.75;1426603;98;21114;-51
2022/01/12 12:35:19;;;;;;;5.83;2.72;;;;;;;1.39;42.99;102824.91;1437939;96;21097;-51
2022/01/12 12:37:57;;;;;;;5.17;3.17;;;;;;;1.41;42.55;102829.71;1471498;96;21092;-50
2022/01/12 12:40:29;;;;;;;4.67;2.85;;;;;;;1.40;42.72;102834.78;1401567;101;21188;-51
2022/01/12 12:43:19;;;;;;;4.53;2.95;;;;;;;1.41;42.08;102822.02;1409371;101;21203;-51
2022/01/12 12:45:52;;;;;;;5.33;3.02;;;;;;;1.42;42.75;102823.77;1403600;101;21123;-52
2022/01/12 12:48:33;;;;;;;7.12;3.83;;;;;;;1.45;42.34;102823.03;1409704;101;21615;-51
2022/01/12 12:51:08;;;;;;;;;;;;;;;1.49;42.25;102813.00;1405438;101;21131;-51
2022/01/12 12:53:40;;;;;;;4.12;3.00;;;;;;;1.51;42.02;102824.21;1396023;101;20182;-51
2022/01/12 12:56:11;;;;;;;4.08;2.72;;;;;;;1.52;42.21;102819.97;1443333;97;21111;-51
2022/01/12 12:58:37;;;;;;;7.12;3.95;;;;;;;1.50;42.14;102813.49;1454288;98;21125;-51
2022/01/12 13:01:06;;;;;;;4.60;3.45;;;;;;;1.48;41.89;102818.92;1451316;99;21665;-51
2022/01/12 13:03:32;;;;;;;5.97;3.70;;;;;;;1.45;41.91;102817.51;1448731;96;21143;-51
2022/01/12 13:05:59;;;;;;;6.70;3.77;;;;;;;1.44;41.44;102819.58;1496010;95;21162;-54
2022/01/12 13:08:25;;;;;;;5.85;3.70;;;;;;;1.41;41.68;102823.70;1493496;94;21080;-51
2022/01/12 13:10:52;;;;;;;5.17;3.83;;;;;;;1.37;42.00;102826.53;1509921;93;21088;-53
2022/01/12 13:13:18;;;;;;;4.97;3.52;;;;;;;1.32;41.90;102821.98;1560729;90;22369;-52
2022/01/12 13:15:45;;;;;;;7.30;3.27;;;;;;;1.28;42.69;102819.66;1550615;90;21601;-52
2022/01/12 13:18:20;;;;;;;5.83;3.98;;;;;;;1.31;42.44;102817.25;1565288;90;21571;-53
2022/01/12 13:21:10;;;;;;;6.67;4.00;;;;;;;1.33;42.18;102820.77;1562275;90;21059;-52
2022/01/12 13:23:43;;;;;;;6.15;4.22;;;;;;;1.33;42.09;102829.75;1550967;92;21666;-52
2022/01/12 13:26:12;;;;;;;6.92;4.30;;;;;;;1.34;41.74;102832.77;1594990;89;21567;-52
2022/01/12 13:28:41;;;;;;;7.05;4.60;;;;;;;1.31;41.76;102827.52;1585008;89;21109;-53
2022/01/12 13:31:11;;;;;;;7.53;3.77;;;;;;;1.28;42.03;102824.78;1582336;89;21650;-52
2022/01/12 13:33:48;;;;;;;6.72;4.35;;;;;;;1.25;42.09;102836.19;1599516;89;21073;-52